createdAt,value
2023-05-02T00:00:03.348Z,64.1192
2023-05-02T00:01:07.374Z,68.2008
2023-05-02T00:02:11.439Z,66.8575
2023-05-02T00:03:15.408Z,51.7633
2023-05-02T00:04:19.383Z,51.8983
2023-05-02T00:05:23.550Z,58.4792
2023-05-02T00:06:27.504Z,63.9700
2023-05-02T00:07:31.419Z,68.1267
2023-05-02T00:08:35.330Z,67.3217
2023-05-02T00:09:39.240Z,53.4217
2023-05-02T00:10:43.140Z,54.6225
2023-05-02T00:11:47.039Z,60.8025
2023-05-02T00:12:50.938Z,65.8275
2023-05-02T00:13:54.824Z,69.4342
2023-05-02T00:14:59.490Z,66.9342
2023-05-02T00:16:03.380Z,50.7117
2023-05-02T00:17:07.338Z,50.3258
2023-05-02T00:18:11.252Z,57.1042
2023-05-02T00:19:15.150Z,62.9375
2023-05-02T00:20:19.131Z,67.4883
2023-05-02T00:21:23.034Z,67.6217
2023-05-02T00:22:26.921Z,52.3233
2023-05-02T00:23:30.814Z,49.5958
2023-05-02T00:24:34.700Z,56.2858
2023-05-02T00:25:38.596Z,62.2375
2023-05-02T00:26:42.475Z,66.8683
2023-05-02T00:27:46.378Z,68.3442
2023-05-02T00:28:50.272Z,53.9483
2023-05-02T00:29:50.732Z,46.7427
2023-05-02T00:30:54.647Z,52.9492
2023-05-02T00:31:58.556Z,59.4883
2023-05-02T00:33:02.493Z,64.7458
2023-05-02T00:34:06.358Z,68.4008
2023-05-02T00:35:10.257Z,58.9625
2023-05-02T00:36:14.152Z,48.8767
2023-05-02T00:37:18.060Z,54.2392
2023-05-02T00:38:21.934Z,60.5142
2023-05-02T00:39:25.822Z,65.4817
2023-05-02T00:40:29.810Z,68.9408
2023-05-02T00:41:33.692Z,61.3467
2023-05-02T00:42:37.606Z,57.0283
2023-05-02T00:43:41.510Z,62.3392
2023-05-02T00:44:45.407Z,66.9150
2023-05-02T00:45:49.325Z,70.0583
2023-05-02T00:46:53.386Z,70.8158
2023-05-02T00:47:57.385Z,55.4483
2023-05-02T00:49:01.319Z,45.0008
2023-05-02T00:50:05.272Z,50.6450
2023-05-02T00:51:09.165Z,57.6300
2023-05-02T00:52:13.047Z,63.3733
2023-05-02T00:53:16.964Z,67.8817
2023-05-02T00:54:20.873Z,62.0850
2023-05-02T00:55:24.791Z,54.3433
2023-05-02T00:56:28.692Z,59.5650
2023-05-02T00:57:32.601Z,64.8000
2023-05-02T00:58:36.512Z,68.7042
2023-05-02T00:59:40.444Z,70.9983
2023-05-02T01:00:44.330Z,58.7750
2023-05-02T01:01:48.286Z,44.7358
2023-05-02T01:02:52.319Z,48.1025
2023-05-02T01:03:56.350Z,55.4342
2023-05-02T01:05:00.254Z,61.5958
2023-05-02T01:06:04.254Z,66.4850
2023-05-02T01:07:08.102Z,65.0583
2023-05-02T01:08:12.127Z,55.2617
2023-05-02T01:09:16.002Z,59.3642
2023-05-02T01:10:19.899Z,64.5583
2023-05-02T01:11:23.812Z,68.4475
2023-05-02T01:12:27.708Z,71.2692
2023-05-02T01:13:31.626Z,62.4900
2023-05-02T01:14:35.520Z,47.0908
2023-05-02T01:15:39.453Z,49.5175
2023-05-02T01:16:43.408Z,56.6183
2023-05-02T01:17:47.338Z,62.5758
2023-05-02T01:18:51.219Z,67.3100
2023-05-02T01:19:55.107Z,66.0842
2023-05-02T01:20:59.001Z,50.4950
2023-05-02T01:22:02.958Z,49.9200
2023-05-02T01:23:07.206Z,56.7350
2023-05-02T01:24:11.103Z,62.6133
2023-05-02T01:25:15.010Z,67.1600
2023-05-02T01:26:18.913Z,67.5308
2023-05-02T01:27:22.831Z,52.8050
2023-05-02T01:28:26.747Z,51.3150
2023-05-02T01:29:30.658Z,57.8517
2023-05-02T01:30:34.568Z,63.4733
2023-05-02T01:31:38.593Z,67.7625
2023-05-02T01:32:42.783Z,68.0450
2023-05-02T01:33:46.667Z,52.3392
2023-05-02T01:34:50.565Z,45.8467
2023-05-02T01:35:54.525Z,52.4808
2023-05-02T01:36:58.416Z,59.1092
2023-05-02T01:38:02.333Z,64.4583
2023-05-02T01:39:06.212Z,68.1400
2023-05-02T01:40:10.133Z,57.9483
2023-05-02T01:41:14.023Z,49.3817
2023-05-02T01:42:17.942Z,55.1267
2023-05-02T01:43:21.856Z,61.2383
2023-05-02T01:44:25.729Z,66.0425
2023-05-02T01:45:29.622Z,69.1658
2023-05-02T01:46:33.577Z,59.1083
2023-05-02T01:47:37.512Z,47.6433
2023-05-02T01:48:41.416Z,52.7042
2023-05-02T01:49:45.316Z,59.2892
2023-05-02T01:50:49.239Z,64.6225
2023-05-02T01:51:53.162Z,68.5467
2023-05-02T01:52:57.093Z,61.9467
2023-05-02T01:54:00.968Z,48.4375
2023-05-02T01:55:04.866Z,52.1300
2023-05-02T01:56:08.748Z,58.7558
2023-05-02T01:57:12.650Z,64.1525
2023-05-02T01:58:16.771Z,68.1892
2023-05-02T01:59:20.649Z,63.9933
2023-05-02T02:00:24.783Z,49.4975
2023-05-02T02:01:28.699Z,51.9658
2023-05-02T02:02:32.586Z,58.5800
2023-05-02T02:03:36.578Z,64.0225
2023-05-02T02:04:40.628Z,68.1342
2023-05-02T02:05:41.605Z,65.8950
2023-05-02T02:06:45.624Z,52.7975
2023-05-02T02:07:49.896Z,55.5875
2023-05-02T02:08:53.782Z,61.6092
2023-05-02T02:09:57.805Z,66.3525
2023-05-02T02:11:01.795Z,69.7000
2023-05-02T02:12:05.712Z,65.0833
2023-05-02T02:13:09.624Z,50.1317
2023-05-02T02:14:13.536Z,52.4383
2023-05-02T02:15:17.444Z,59.0458
2023-05-02T02:16:21.416Z,64.5017
2023-05-02T02:17:25.676Z,68.6508
2023-05-02T02:18:29.851Z,65.9433
2023-05-02T02:19:33.746Z,50.1842
2023-05-02T02:20:37.644Z,50.4733
2023-05-02T02:21:41.519Z,57.2992
2023-05-02T02:22:45.646Z,63.0792
2023-05-02T02:23:49.563Z,67.5575
2023-05-02T02:24:54.405Z,67.2833
2023-05-02T02:25:58.495Z,54.4225
2023-05-02T02:27:02.388Z,56.5825
2023-05-02T02:28:06.280Z,62.4050
2023-05-02T02:29:10.184Z,67.0258
2023-05-02T02:30:14.119Z,70.2258
2023-05-02T02:31:18.093Z,66.0075
2023-05-02T02:32:21.956Z,49.6208
2023-05-02T02:33:25.840Z,49.8625
2023-05-02T02:34:29.726Z,56.8117
2023-05-02T02:35:33.615Z,62.7325
2023-05-02T02:36:37.521Z,67.4067
2023-05-02T02:37:41.404Z,67.5125
2023-05-02T02:38:45.291Z,52.8558
2023-05-02T02:39:49.174Z,52.3458
2023-05-02T02:40:53.051Z,58.8250
2023-05-02T02:41:56.937Z,64.2867
2023-05-02T02:43:00.848Z,68.4183
2023-05-02T02:44:04.726Z,67.9925
2023-05-02T02:45:09.570Z,54.3933
2023-05-02T02:46:13.489Z,55.6442
2023-05-02T02:47:17.350Z,61.6667
2023-05-02T02:48:21.233Z,66.5458
2023-05-02T02:49:25.147Z,69.9775
2023-05-02T02:50:29.025Z,66.9892
2023-05-02T02:51:32.961Z,50.4967
2023-05-02T02:52:37.095Z,49.7275
2023-05-02T02:53:41.001Z,56.6608
2023-05-02T02:54:44.928Z,62.6592
2023-05-02T02:55:49.593Z,67.3742
2023-05-02T02:56:53.485Z,67.9575
2023-05-02T02:57:57.378Z,52.3958
2023-05-02T02:59:01.272Z,47.1508
2023-05-02T03:00:05.390Z,53.8850
2023-05-02T03:01:09.300Z,60.2842
2023-05-02T03:02:13.221Z,65.4092
2023-05-02T03:03:17.169Z,68.5192
2023-05-02T03:04:21.155Z,56.8167
2023-05-02T03:05:25.667Z,49.7125
2023-05-02T03:06:29.627Z,55.7942
2023-05-02T03:07:33.626Z,61.8275
2023-05-02T03:08:37.544Z,66.5258
2023-05-02T03:09:41.454Z,69.2700
2023-05-02T03:10:45.354Z,57.6192
2023-05-02T03:11:49.267Z,46.2067
2023-05-02T03:12:53.188Z,51.3158
2023-05-02T03:13:57.097Z,58.1342
2023-05-02T03:15:01.259Z,63.7117
2023-05-02T03:16:05.181Z,67.9742
2023-05-02T03:17:09.172Z,62.2867
2023-05-02T03:18:13.083Z,48.6725
2023-05-02T03:19:17.279Z,52.1967
2023-05-02T03:20:21.167Z,58.7658
2023-05-02T03:21:25.069Z,64.1325
2023-05-02T03:22:28.954Z,68.1658
2023-05-02T03:23:32.835Z,64.5250
2023-05-02T03:24:36.710Z,56.7950
2023-05-02T03:25:40.614Z,61.5567
2023-05-02T03:26:44.514Z,66.3800
2023-05-02T03:27:48.405Z,69.7242
2023-05-02T03:28:52.396Z,71.8575
2023-05-02T03:29:56.300Z,59.9108
2023-05-02T03:31:00.326Z,44.9533
2023-05-02T03:32:04.407Z,47.4683
2023-05-02T03:33:08.417Z,54.9492
2023-05-02T03:34:12.305Z,61.2383
2023-05-02T03:35:16.196Z,66.2842
2023-05-02T03:36:20.090Z,66.0617
2023-05-02T03:37:24.003Z,51.1733
2023-05-02T03:38:27.913Z,50.9742
2023-05-02T03:39:31.824Z,57.6342
2023-05-02T03:40:35.713Z,63.2842
2023-05-02T03:41:39.595Z,67.6108
2023-05-02T03:42:43.493Z,67.5358
2023-05-02T03:43:47.376Z,53.0467
2023-05-02T03:44:51.276Z,53.0600
2023-05-02T03:45:55.154Z,59.4692
2023-05-02T03:46:59.125Z,64.8033
2023-05-02T03:48:03.135Z,68.7775
2023-05-02T03:49:07.003Z,67.7750
2023-05-02T03:50:07.411Z,51.5518
2023-05-02T03:51:11.308Z,45.3233
2023-05-02T03:52:15.198Z,52.0058
2023-05-02T03:53:19.094Z,58.7467
2023-05-02T03:54:22.984Z,64.2183
2023-05-02T03:55:26.878Z,68.1367
2023-05-02T03:56:30.749Z,58.5892
2023-05-02T03:57:34.690Z,47.4417
2023-05-02T03:58:38.546Z,52.5625
2023-05-02T03:59:42.419Z,59.1475
2023-05-02T04:00:46.316Z,64.4867
2023-05-02T04:01:50.318Z,68.4167
2023-05-02T04:02:54.548Z,61.7875
2023-05-02T04:03:58.512Z,47.4033
2023-05-02T04:05:02.391Z,50.4442
2023-05-02T04:06:06.285Z,57.3333
2023-05-02T04:07:10.170Z,63.0533
2023-05-02T04:08:14.044Z,67.4408
2023-05-02T04:09:17.929Z,64.9992
2023-05-02T04:10:21.824Z,48.5700
2023-05-02T04:11:25.790Z,46.0767
2023-05-02T04:12:29.632Z,53.2600
2023-05-02T04:13:33.523Z,59.7767
2023-05-02T04:14:37.442Z,64.9667
2023-05-02T04:15:41.351Z,67.5833
2023-05-02T04:16:45.302Z,55.9167
2023-05-02T04:17:49.264Z,54.6908
2023-05-02T04:18:53.146Z,60.6925
2023-05-02T04:19:57.037Z,65.6092
2023-05-02T04:21:00.941Z,69.0758
2023-05-02T04:22:04.869Z,68.5733
2023-05-02T04:23:04.965Z,52.8218
2023-05-02T04:24:08.872Z,48.8675
2023-05-02T04:25:12.780Z,55.5425
2023-05-02T04:26:16.689Z,61.7542
2023-05-02T04:27:20.586Z,66.7075
2023-05-02T04:28:24.531Z,69.2150
2023-05-02T04:29:28.421Z,56.4575
2023-05-02T04:30:32.325Z,50.8592
2023-05-02T04:31:36.276Z,57.1008
2023-05-02T04:32:40.277Z,62.9442
2023-05-02T04:33:44.185Z,67.4550
2023-05-02T04:34:48.051Z,69.5933
2023-05-02T04:35:52.213Z,56.3383
2023-05-02T04:36:56.117Z,46.3892
2023-05-02T04:38:00.256Z,52.1892
2023-05-02T04:39:04.173Z,58.9075
2023-05-02T04:40:08.109Z,64.3617
2023-05-02T04:41:12.007Z,68.4342
2023-05-02T04:42:15.914Z,60.9433
2023-05-02T04:43:19.822Z,47.4083
2023-05-02T04:44:23.735Z,51.2483
2023-05-02T04:45:27.873Z,58.0567
2023-05-02T04:46:31.886Z,63.6692
2023-05-02T04:47:35.824Z,67.9142
2023-05-02T04:48:39.723Z,64.0900
2023-05-02T04:49:43.621Z,51.6983
2023-05-02T04:50:47.509Z,55.5200
2023-05-02T04:51:51.407Z,61.6017
2023-05-02T04:52:55.317Z,66.3683
2023-05-02T04:53:59.235Z,69.7008
2023-05-02T04:55:03.133Z,63.6942
2023-05-02T04:56:07.013Z,52.0658
2023-05-02T04:57:11.040Z,56.5967
2023-05-02T04:58:14.964Z,62.5575
2023-05-02T04:59:18.866Z,67.2267
2023-05-02T05:00:19.268Z,70.3782
2023-05-02T05:01:23.180Z,63.4667
2023-05-02T05:02:27.302Z,48.2833
2023-05-02T05:03:31.338Z,50.7108
2023-05-02T05:04:35.232Z,57.6342
2023-05-02T05:05:39.254Z,63.4017
2023-05-02T05:06:43.259Z,67.9025
2023-05-02T05:07:47.125Z,66.0758
2023-05-02T05:08:51.011Z,49.8500
2023-05-02T05:09:54.940Z,48.2867
2023-05-02T05:10:59.125Z,55.3092
2023-05-02T05:12:03.037Z,61.4692
2023-05-02T05:13:07.183Z,66.3392
2023-05-02T05:14:11.111Z,67.8308
2023-05-02T05:15:15.008Z,53.2925
2023-05-02T05:16:18.981Z,46.9592
2023-05-02T05:17:22.920Z,53.5075
2023-05-02T05:18:26.793Z,59.9758
2023-05-02T05:19:30.681Z,65.1233
2023-05-02T05:20:34.562Z,68.0567
2023-05-02T05:23:09.552Z,45.3175
2023-05-02T05:24:11.308Z,36.3523
2023-05-02T05:25:13.017Z,31.2769
2023-05-02T05:26:14.720Z,36.4692
2023-05-02T05:27:16.481Z,44.6562
2023-05-02T05:28:18.187Z,51.9362
2023-05-02T05:29:19.900Z,58.2369
2023-05-02T05:30:21.627Z,61.7131
2023-05-02T05:31:23.348Z,55.0546
2023-05-02T05:32:25.109Z,58.1454
2023-05-02T05:33:26.907Z,63.2369
2023-05-02T05:34:28.530Z,67.5623
2023-05-02T05:35:30.248Z,71.1585
2023-05-02T05:36:31.937Z,68.0392
2023-05-02T05:37:33.653Z,51.5638
2023-05-02T05:38:35.377Z,50.4592
2023-05-02T05:39:37.111Z,56.7885
2023-05-02T05:40:38.820Z,62.4585
2023-05-02T05:41:40.542Z,67.1046
2023-05-02T05:42:42.261Z,69.3562
2023-05-02T05:43:43.970Z,56.5400
2023-05-02T05:44:45.736Z,51.8346
2023-05-02T05:45:47.440Z,57.5831
2023-05-02T05:46:50.024Z,63.0685
2023-05-02T05:47:50.921Z,67.4615
2023-05-02T05:48:52.603Z,70.2869
2023-05-02T05:49:54.321Z,59.3608
2023-05-02T05:50:56.031Z,48.8915
2023-05-02T05:51:57.762Z,53.7123
2023-05-02T05:52:59.482Z,59.8831
2023-05-02T05:54:01.191Z,64.9869
2023-05-02T05:55:02.885Z,68.9123
2023-05-02T05:56:04.609Z,64.4738
2023-05-02T05:57:06.339Z,49.0938
2023-05-02T05:58:08.060Z,49.5823
2023-05-02T05:59:09.784Z,56.1646
2023-05-02T06:00:11.503Z,61.9246
2023-05-02T06:01:13.215Z,66.5300
2023-05-02T06:02:15.001Z,68.1531
2023-05-02T06:03:16.705Z,54.2185
2023-05-02T06:04:18.367Z,44.7985
2023-05-02T06:05:20.105Z,50.1715
2023-05-02T06:06:21.894Z,56.8477
2023-05-02T06:07:23.533Z,62.4169
2023-05-02T06:08:25.264Z,66.8069
2023-05-02T06:09:26.979Z,63.9338
2023-05-02T06:10:28.787Z,48.0700
2023-05-02T06:11:30.415Z,45.1515
2023-05-02T06:12:32.139Z,51.8923
2023-05-02T06:13:33.854Z,58.2623
2023-05-02T06:14:35.586Z,63.4823
2023-05-02T06:15:37.365Z,67.2115
2023-05-02T06:16:39.128Z,58.1008
2023-05-02T06:17:40.747Z,45.6238
2023-05-02T06:18:42.428Z,49.1385
2023-05-02T06:19:44.151Z,55.7892
2023-05-02T06:20:45.892Z,61.4515
2023-05-02T06:21:47.619Z,65.9254
2023-05-02T06:22:49.338Z,65.7092
2023-05-02T06:23:51.053Z,51.4800
2023-05-02T06:24:52.768Z,50.1969
2023-05-02T06:25:54.494Z,56.4577
2023-05-02T06:26:56.231Z,62.0131
2023-05-02T06:27:57.939Z,66.3446
2023-05-02T06:28:59.664Z,68.4023
2023-05-02T06:30:01.623Z,56.9731
2023-05-02T06:31:03.190Z,54.4777
2023-05-02T06:32:04.874Z,58.4338
2023-05-02T06:33:06.584Z,63.7862
2023-05-02T06:34:08.246Z,67.5731
2023-05-02T06:35:09.992Z,69.4015
2023-05-02T06:36:11.661Z,56.5277
2023-05-02T06:37:13.391Z,44.4923
2023-05-02T06:38:15.106Z,48.3708
2023-05-02T06:39:16.827Z,55.2223
2023-05-02T06:40:18.537Z,61.1069
2023-05-02T06:41:20.299Z,65.8362
2023-05-02T06:42:21.986Z,65.7254
2023-05-02T06:43:23.710Z,50.3954
2023-05-02T06:44:25.469Z,44.3077
2023-05-02T06:45:27.165Z,50.5131
2023-05-02T06:46:28.895Z,57.0462
2023-05-02T06:47:30.701Z,62.4800
2023-05-02T06:48:32.319Z,66.6915
2023-05-02T06:49:34.032Z,60.9931
2023-05-02T06:50:35.775Z,49.0808
2023-05-02T06:51:37.503Z,52.7423
2023-05-02T06:52:39.205Z,58.8569
2023-05-02T06:53:40.970Z,63.8715
2023-05-02T06:54:42.659Z,67.6554
2023-05-02T06:55:44.379Z,65.4862
2023-05-02T06:56:46.111Z,50.2638
2023-05-02T06:57:47.822Z,49.1231
2023-05-02T06:58:49.556Z,55.5762
2023-05-02T06:59:51.308Z,61.3715
2023-05-02T07:00:53.005Z,65.9715
2023-05-02T07:01:54.717Z,68.2615
2023-05-02T07:02:56.487Z,56.0746
2023-05-02T07:03:58.196Z,49.7015
2023-05-02T07:04:59.883Z,55.4177
2023-05-02T07:06:01.684Z,61.2177
2023-05-02T07:07:03.333Z,65.8638
2023-05-02T07:08:05.053Z,69.0592
2023-05-02T07:09:06.784Z,60.7254
2023-05-02T07:10:08.505Z,50.6392
2023-05-02T07:11:10.241Z,55.2615
2023-05-02T07:12:11.935Z,61.0985
2023-05-02T07:13:13.653Z,65.8262
2023-05-02T07:14:15.378Z,69.2415
2023-05-02T07:15:17.065Z,64.1054
2023-05-02T07:16:18.846Z,49.3708
2023-05-02T07:17:20.540Z,50.8546
2023-05-02T07:18:22.236Z,57.2754
2023-05-02T07:19:23.954Z,62.7962
2023-05-02T07:20:25.743Z,67.1392
2023-05-02T07:21:27.419Z,59.3831
2023-05-02T07:22:29.115Z,48.5538
2023-05-02T07:23:30.847Z,47.7700
2023-05-02T07:24:32.568Z,47.4308
2023-05-02T07:25:34.279Z,47.2285
2023-05-02T07:26:35.996Z,47.0815
2023-05-02T07:27:37.742Z,47.0038
2023-05-02T07:28:39.453Z,46.9131
2023-05-02T07:29:41.183Z,46.8569
2023-05-02T07:30:42.891Z,46.8700
2023-05-02T07:31:44.668Z,46.7869
2023-05-02T07:32:46.393Z,46.7608
2023-05-02T07:33:48.065Z,46.6731
2023-05-02T07:34:49.758Z,46.5585
2023-05-02T07:35:51.485Z,46.5631
2023-05-02T07:36:53.203Z,46.5062
2023-05-02T07:37:54.997Z,46.5125
2023-05-02T07:38:57.448Z,46.5108
2023-05-02T07:40:01.598Z,46.4850
2023-05-02T07:41:05.779Z,46.4267
2023-05-02T07:42:09.674Z,46.4867
2023-05-02T07:43:13.563Z,46.5250
2023-05-02T07:44:17.438Z,46.5000
2023-05-02T07:45:21.492Z,46.4508
2023-05-02T07:46:25.554Z,46.4683
2023-05-02T07:47:33.434Z,46.4458
2023-05-02T07:48:32.029Z,46.4400
2023-05-02T07:49:35.907Z,46.4375
2023-05-02T07:50:39.823Z,46.4400
2023-05-02T07:51:44.581Z,46.4442
2023-05-02T07:52:48.875Z,46.4642
2023-05-02T07:53:52.278Z,46.4055
2023-05-02T07:54:56.181Z,46.4592
2023-05-02T07:56:00.134Z,46.4167
2023-05-02T07:57:04.148Z,46.4508
2023-05-02T07:58:08.041Z,46.4058
2023-05-02T07:59:12.176Z,46.3425
2023-05-02T08:00:16.135Z,46.3242
2023-05-02T08:01:20.027Z,46.3000
2023-05-02T08:02:25.852Z,46.2550
2023-05-02T08:03:24.800Z,46.2227
2023-05-02T08:04:30.610Z,46.2425
2023-05-02T08:05:29.297Z,46.2500
2023-05-02T08:06:33.252Z,46.1925
2023-05-02T08:07:37.390Z,46.2075
2023-05-02T08:08:41.330Z,46.1217
2023-05-02T08:09:45.243Z,46.1425
2023-05-02T08:10:49.281Z,46.0950
2023-05-02T08:11:53.178Z,46.1483
2023-05-02T08:12:59.384Z,46.1667
2023-05-02T08:13:58.490Z,46.1291
2023-05-02T08:14:58.916Z,42.3900
2023-05-02T08:16:02.914Z,33.5983
2023-05-02T08:17:06.790Z,29.8583
2023-05-02T08:18:10.804Z,33.8367
2023-05-02T08:19:14.726Z,42.0142
2023-05-02T08:20:18.596Z,49.6600
2023-05-02T08:21:22.517Z,56.4217
2023-05-02T08:22:26.390Z,61.0575
2023-05-02T08:23:30.308Z,57.3958
2023-05-02T08:24:34.210Z,61.4317
2023-05-02T08:25:38.156Z,66.6758
2023-05-02T08:26:42.073Z,71.0408
2023-05-02T08:27:45.987Z,74.6300
2023-05-02T08:28:49.890Z,67.0142
2023-05-02T08:29:53.839Z,49.6908
2023-05-02T08:30:57.724Z,47.1358
2023-05-02T08:32:01.728Z,53.9217
2023-05-02T08:33:05.706Z,60.5342
2023-05-02T08:34:09.614Z,66.1492
2023-05-02T08:35:13.493Z,69.8200
2023-05-02T08:36:17.378Z,58.2392
2023-05-02T08:37:21.301Z,50.3383
2023-05-02T08:38:25.186Z,55.8567
2023-05-02T08:39:29.082Z,62.1075
2023-05-02T08:40:41.571Z,67.4842
2023-05-02T08:41:37.461Z,71.6945
2023-05-02T08:42:41.375Z,62.0433
2023-05-02T08:43:45.406Z,48.9617
2023-05-02T08:44:49.298Z,52.4217
2023-05-02T08:45:53.202Z,59.0692
2023-05-02T08:46:57.160Z,64.9358
2023-05-02T08:48:01.146Z,69.8025
2023-05-02T08:49:05.015Z,67.0550
2023-05-02T08:50:09.188Z,51.0983
2023-05-02T08:51:13.087Z,50.1908
2023-05-02T08:52:16.995Z,56.6725
2023-05-02T08:53:20.927Z,62.9217
2023-05-02T08:54:25.025Z,68.1408
2023-05-02T08:55:28.946Z,69.8892
2023-05-02T08:56:32.868Z,56.0308
2023-05-02T08:57:37.097Z,53.6017
2023-05-02T08:58:41.046Z,59.6942
2023-05-02T08:59:44.910Z,65.3742
2023-05-02T09:00:48.831Z,70.0850
2023-05-02T09:01:52.723Z,71.3858
2023-05-02T09:02:56.636Z,56.0467
2023-05-02T09:04:00.609Z,49.7300
2023-05-02T09:05:04.514Z,55.7233
2023-05-02T09:06:08.432Z,62.0308
2023-05-02T09:07:12.328Z,67.3717
2023-05-02T09:08:16.213Z,71.1233
2023-05-02T09:09:20.127Z,60.1083
2023-05-02T09:10:24.039Z,50.0117
2023-05-02T09:11:27.991Z,55.0775
2023-05-02T09:12:32.087Z,61.4558
2023-05-02T09:13:35.996Z,66.8900
2023-05-02T09:14:39.875Z,71.1892
2023-05-02T09:15:43.781Z,63.2675
2023-05-02T09:16:47.793Z,49.0992
2023-05-02T09:17:51.982Z,51.9858
2023-05-02T09:18:55.918Z,58.6967
2023-05-02T09:19:59.936Z,64.5542
2023-05-02T09:21:03.849Z,69.4050
2023-05-02T09:22:07.768Z,66.9583
2023-05-02T09:23:11.682Z,51.2883
2023-05-02T09:24:15.614Z,51.2383
2023-05-02T09:25:19.753Z,57.8500
2023-05-02T09:26:23.675Z,63.8133
2023-05-02T09:27:27.532Z,68.8033
2023-05-02T09:28:31.430Z,69.3833
2023-05-02T09:29:35.349Z,53.7692
2023-05-02T09:30:39.296Z,49.4983
2023-05-02T09:31:55.616Z,55.9233
2023-05-02T09:32:47.748Z,62.4518
2023-05-02T09:33:51.640Z,67.5142
2023-05-02T09:34:55.552Z,70.5033
2023-05-02T09:35:59.438Z,55.2958
2023-05-02T09:37:03.363Z,45.2158
2023-05-02T09:38:07.231Z,50.6342
2023-05-02T09:39:11.132Z,57.6675
2023-05-02T09:40:15.065Z,63.7000
2023-05-02T09:41:18.945Z,68.6850
2023-05-02T09:42:22.858Z,63.6325
2023-05-02T09:43:26.755Z,50.8858
2023-05-02T09:44:30.752Z,54.3825
2023-05-02T09:45:35.362Z,60.8325
2023-05-02T09:46:39.404Z,66.3158
2023-05-02T09:47:43.304Z,70.8092
2023-05-02T09:48:47.162Z,65.7642
2023-05-02T09:49:51.069Z,48.9092
2023-05-02T09:50:54.989Z,47.0650
2023-05-02T09:51:58.890Z,54.0958
2023-05-02T09:53:02.928Z,60.6483
2023-05-02T09:54:06.925Z,66.1608
2023-05-02T09:55:10.789Z,69.0450
2023-05-02T09:56:14.710Z,55.8000
2023-05-02T09:57:18.643Z,50.0608
2023-05-02T09:58:22.535Z,56.1317
2023-05-02T09:59:26.425Z,62.2925
2023-05-02T10:00:30.347Z,67.5075
2023-05-02T10:01:34.269Z,70.8333
2023-05-02T10:02:38.258Z,58.5242
2023-05-02T10:03:42.187Z,47.4417
2023-05-02T10:04:46.144Z,52.2758
2023-05-02T10:05:50.071Z,58.9875
2023-05-02T10:06:53.978Z,64.7408
2023-05-02T10:07:57.893Z,69.4375
2023-05-02T10:09:01.817Z,63.5275
2023-05-02T10:10:05.733Z,50.7058
2023-05-02T10:11:09.633Z,54.3408
2023-05-02T10:12:13.564Z,60.6892
2023-05-02T10:13:17.475Z,66.1742
2023-05-02T10:14:21.491Z,70.6333
2023-05-02T10:15:25.374Z,65.5050
2023-05-02T10:16:29.290Z,51.7692
2023-05-02T10:17:33.550Z,54.8017
2023-05-02T10:18:37.458Z,61.0808
2023-05-02T10:19:41.370Z,66.4600
2023-05-02T10:20:45.257Z,70.8417
2023-05-02T10:21:49.178Z,66.1942
2023-05-02T10:22:53.100Z,54.2542
2023-05-02T10:23:56.993Z,58.0533
2023-05-02T10:25:01.201Z,63.7992
2023-05-02T10:26:05.365Z,68.7533
2023-05-02T10:27:09.295Z,72.6358
2023-05-02T10:28:13.194Z,64.6650
2023-05-02T10:29:17.145Z,49.7875
2023-05-02T10:30:21.039Z,52.3408
2023-05-02T10:31:24.960Z,58.9858
2023-05-02T10:32:29.219Z,64.7283
2023-05-02T10:33:33.125Z,69.5000
2023-05-02T10:34:36.988Z,66.9058
2023-05-02T10:35:40.959Z,50.5233
2023-05-02T10:36:44.826Z,49.1092
2023-05-02T10:37:48.896Z,55.8792
2023-05-02T10:38:52.792Z,62.1267
2023-05-02T10:39:56.693Z,67.3242
2023-05-02T10:41:00.576Z,69.1692
2023-05-02T10:42:04.488Z,55.4458
2023-05-02T10:43:08.414Z,53.3300
2023-05-02T10:44:12.323Z,59.4600
2023-05-02T10:45:16.234Z,65.0708
2023-05-02T10:46:20.189Z,69.6908
2023-05-02T10:47:24.152Z,70.5725
2023-05-02T10:48:28.104Z,54.5833
2023-05-02T10:49:32.029Z,46.3600
2023-05-02T10:50:36.138Z,52.2983
2023-05-02T10:51:40.044Z,59.0692
2023-05-02T10:52:43.951Z,64.7908
2023-05-02T10:53:47.893Z,69.3075
2023-05-02T10:54:51.810Z,60.9867
2023-05-02T10:55:55.717Z,49.0425
2023-05-02T10:56:59.625Z,53.3492
2023-05-02T10:58:03.529Z,59.8033
2023-05-02T10:59:07.435Z,65.3733
2023-05-02T11:00:07.632Z,69.7673
2023-05-02T11:01:11.587Z,65.1492
2023-05-02T11:02:15.708Z,50.3167
2023-05-02T11:03:19.642Z,52.2825
2023-05-02T11:04:23.532Z,58.8067
2023-05-02T11:05:27.399Z,64.5217
2023-05-02T11:06:31.323Z,69.2433
2023-05-02T11:07:35.234Z,67.2000
2023-05-02T11:08:39.167Z,51.8508
2023-05-02T11:09:43.056Z,52.2975
2023-05-02T11:10:46.986Z,58.7458
2023-05-02T11:11:50.899Z,64.4467
2023-05-02T11:12:54.797Z,69.1925
2023-05-02T11:13:58.698Z,68.5717
2023-05-02T11:15:02.790Z,52.3800
2023-05-02T11:16:06.920Z,49.2008
2023-05-02T11:17:10.786Z,55.7467
2023-05-02T11:18:14.811Z,61.9258
2023-05-02T11:19:18.678Z,67.1192
2023-05-02T11:20:22.549Z,69.5692
2023-05-02T11:21:26.442Z,55.5692
2023-05-02T11:22:30.350Z,47.8433
2023-05-02T11:23:34.219Z,53.7050
2023-05-02T11:24:38.142Z,60.1667
2023-05-02T11:25:42.098Z,65.6292
2023-05-02T11:26:45.978Z,69.7592
2023-05-02T11:27:49.917Z,60.2092
2023-05-02T11:28:53.809Z,50.2933
2023-05-02T11:29:57.723Z,55.2983
2023-05-02T11:31:01.614Z,61.4567
2023-05-02T11:32:05.554Z,66.6950
2023-05-02T11:33:09.470Z,70.7492
2023-05-02T11:34:13.333Z,61.8525
2023-05-02T11:35:17.228Z,47.9142
2023-05-02T11:36:21.147Z,51.0383
2023-05-02T11:37:25.049Z,57.7783
2023-05-02T11:38:28.992Z,63.6167
2023-05-02T11:39:32.890Z,68.4583
2023-05-02T11:40:36.799Z,65.7000
2023-05-02T11:41:40.724Z,50.1133
2023-05-02T11:42:44.632Z,50.2042
2023-05-02T11:43:48.542Z,56.8458
2023-05-02T11:44:52.461Z,62.8283
2023-05-02T11:45:56.463Z,67.8000
2023-05-02T11:47:00.385Z,68.1417
2023-05-02T11:48:04.349Z,52.8908
2023-05-02T11:49:09.334Z,50.4108
2023-05-02T11:50:08.754Z,56.7536
2023-05-02T11:51:12.680Z,62.4883
2023-05-02T11:52:16.607Z,67.5342
2023-05-02T11:53:20.512Z,69.7975
2023-05-02T11:54:24.434Z,55.7092
2023-05-02T11:55:28.580Z,48.7908
2023-05-02T11:56:32.467Z,54.7717
2023-05-02T11:57:36.437Z,61.0217
2023-05-02T11:58:40.347Z,66.3400
2023-05-02T11:59:44.259Z,70.0517
2023-05-02T12:00:48.179Z,59.0000
2023-05-02T12:01:52.086Z,48.6392
2023-05-02T12:02:56.186Z,53.6625
2023-05-02T12:04:00.140Z,60.0900
2023-05-02T12:05:04.331Z,65.5383
2023-05-02T12:06:08.516Z,69.8625
2023-05-02T12:07:12.523Z,62.0608
2023-05-02T12:08:16.397Z,50.1142
2023-05-02T12:09:20.299Z,54.3300
2023-05-02T12:10:24.190Z,60.5908
2023-05-02T12:11:28.060Z,65.9258
2023-05-02T12:12:31.975Z,70.2242
2023-05-02T12:13:35.896Z,63.6975
2023-05-02T12:14:39.802Z,48.5192
2023-05-02T12:15:43.737Z,50.3392
2023-05-02T12:16:47.833Z,57.0767
2023-05-02T12:17:51.834Z,63.0100
2023-05-02T12:18:55.715Z,67.9233
2023-05-02T12:19:59.876Z,66.9483
2023-05-02T12:21:03.768Z,50.6200
2023-05-02T12:22:07.673Z,46.8883
2023-05-02T12:23:11.577Z,53.5750
2023-05-02T12:24:15.484Z,60.0350
2023-05-02T12:25:19.384Z,65.4425
2023-05-02T12:26:23.317Z,68.7858
2023-05-02T12:27:27.238Z,56.3308
2023-05-02T12:28:31.145Z,47.2317
2023-05-02T12:29:35.050Z,52.7575
2023-05-02T12:30:38.969Z,59.2708
2023-05-02T12:31:42.877Z,64.8000
2023-05-02T12:32:46.761Z,69.1900
2023-05-02T12:33:50.762Z,62.3333
2023-05-02T12:34:54.903Z,59.0058
2023-05-02T12:35:58.811Z,64.0392
2023-05-02T12:37:02.747Z,68.6608
2023-05-02T12:38:06.705Z,72.4817
2023-05-02T12:39:10.600Z,72.8733
2023-05-02T12:40:14.666Z,56.1358
2023-05-02T12:41:18.570Z,45.0350
2023-05-02T12:42:22.460Z,49.9367
2023-05-02T12:43:26.583Z,56.9492
2023-05-02T12:44:30.436Z,62.8908
2023-05-02T12:45:34.358Z,67.8267
2023-05-02T12:46:38.253Z,63.4542
2023-05-02T12:47:42.199Z,50.0508
2023-05-02T12:48:46.838Z,53.0200